Airfield :
LOGIN :

Register | Disclaimer

   EN    FR    IT 

 










Legend :    VFR   Marginal VFR   IFR   Intensive IFR   Very Intensive IFR
Visi :
Ceiling :
>= 8 km
>= 3000ft
5 to 8 km
1000 to 3000 ft
1500m to 5 km
500 to 1000 ft
800 to 1500m
200 to 500 ft
< 800m
< 200 ft
Symbols :   Thunderstorms  Fog  Heavy snow  Heavy precipitations  Wind > 20 kt
SIGMETs :     Misc.  Thunderstorms  Icing  Turbulence  Mountain Waves  Volcanic Ashes






- Airport Elevation : 388 ft
- IATA code : QYR


LFQB - Troyes Barberey

CURRENT METAR :
  • 211100Z AUTO 27003KT 210V340 9999 BKN025 BKN033 25/17 Q1010

EXPIRED METARs :
  • 211030Z AUTO 27003KT 200V330 9999 SCT023 BKN130 24/18 Q1010
  • 211000Z AUTO VRB03KT 9999 FEW017 SCT096 BKN130 23/18 Q1010
  • 210930Z AUTO 25004KT 210V290 9999 SCT017 BKN024 OVC076 22/19 Q1010
  • 210900Z AUTO 30003KT 260V350 9999 FEW015 SCT044 BKN070 21/18 Q1010
  • 210830Z AUTO VRB03KT 9999 FEW027 OVC033 21/18 Q1010
  • 210800Z AUTO 23003KT 200V260 9999 FEW015 OVC025 20/18 Q1010
  • 210730Z AUTO 22004KT 9999 BKN023 OVC028 20/18 Q1009
  • 210700Z AUTO 20004KT 160V230 9999 SCT012 BKN020 BKN031 21/18 Q1009
  • 210630Z AUTO VRB02KT 9999 FEW013 BKN092 21/19 Q1009

TAF N/A



MET'MAP, your aeronautical weather chart ! - Copyright ORBIFLY December 2007 - Disclaimer

ORBIFLY MET'MAP TEAM :

Programming & Development : Alexandra Zaïnal
Original concept : Baudouin d'Aumeries
Technical & hardware support : Manuel Goepfert
Assistance : Marc-Olivier Méhu




SOURCES & CREDITS :

   NOAA